Time;durP1;ratioP1;P1;durP2;ratioP2;P2;SDS_P1;SDS_P2;PMS_P1;PMS_P2;Temp;Humidity;BMP_temperature;BMP_pressure;BME280_temperature;BME280_humidity;BME280_pressure;Samples;Min_cycle;Max_cycle;Signal;HPM_P1;HPM_P2
2023/12/14 00:00:13;;;;;;;5.50;4.20;;;;;;;11.81;59.09;100081.50;669758;29;1531;-83
2023/12/14 00:00:34;;;;;;;5.40;3.97;;;;;;;11.82;59.24;100083.25;669738;29;1074;-83
2023/12/14 00:00:54;;;;;;;6.53;4.27;;;;;;;11.79;59.10;100084.97;669785;29;1139;-83
2023/12/14 00:01:15;;;;;;;9.43;4.30;;;;;;;11.76;59.09;100078.84;669566;29;1484;-82
2023/12/14 00:01:36;;;;;;;11.27;4.70;;;;;;;11.84;59.25;100090.25;667003;29;1444;-83
2023/12/14 00:01:56;;;;;;;8.77;4.45;;;;;;;11.79;59.12;100076.25;667305;29;1112;-82
2023/12/14 00:02:17;;;;;;;7.47;4.30;;;;;;;11.86;59.23;100101.59;664894;29;1496;-82
2023/12/14 00:02:38;;;;;;;5.30;4.15;;;;;;;11.77;59.00;100078.84;666808;29;1186;-83
2023/12/14 00:02:59;;;;;;;5.85;4.30;;;;;;;11.79;58.96;100084.97;667422;29;1260;-83
2023/12/14 00:03:19;;;;;;;6.37;4.27;;;;;;;11.79;59.04;100090.19;667179;29;1357;-82
2023/12/14 00:03:41;;;;;;;5.50;3.85;;;;;;;11.79;58.97;100084.09;667313;29;1029;-83
2023/12/14 00:04:04;;;;;;;5.55;3.88;;;;;;;11.76;58.82;100082.34;667348;29;1612;-82
2023/12/14 00:04:24;;;;;;;6.03;4.10;;;;;;;11.77;59.23;100086.69;669941;29;1266;-82
2023/12/14 00:04:45;;;;;;;6.20;4.30;;;;;;;11.77;59.02;100085.81;667121;29;1246;-83
2023/12/14 00:05:06;;;;;;;4.90;4.00;;;;;;;11.79;59.09;100090.19;668168;29;1523;-83
2023/12/14 00:05:26;;;;;;;5.03;4.10;;;;;;;11.86;59.06;100104.22;669877;29;1135;-83
2023/12/14 00:05:47;;;;;;;5.90;4.40;;;;;;;11.82;59.13;100099.81;667381;29;1643;-83
2023/12/14 00:06:08;;;;;;;6.68;4.50;;;;;;;11.82;58.90;100091.09;669543;29;1576;-82
2023/12/14 00:06:29;;;;;;;6.57;4.60;;;;;;;11.80;59.03;100096.28;669688;29;1230;-83
2023/12/14 00:06:49;;;;;;;6.43;4.57;;;;;;;11.75;59.11;100084.91;672014;29;1329;-83
2023/12/14 00:07:14;;;;;;;6.20;4.60;;;;;;;11.79;58.78;100084.97;673597;29;1526;-83
2023/12/14 00:07:34;;;;;;;7.50;4.75;;;;;;;11.78;58.87;100098.00;674694;29;1243;-83
2023/12/14 00:07:55;;;;;;;7.30;4.65;;;;;;;11.81;58.83;100094.56;669723;29;1321;-83
2023/12/14 00:08:16;;;;;;;6.43;4.60;;;;;;;11.78;58.97;100091.06;669563;29;1577;-83
2023/12/14 00:08:36;;;;;;;5.47;4.35;;;;;;;11.75;58.74;100085.78;674840;29;1179;-83
2023/12/14 00:08:57;;;;;;;5.35;4.20;;;;;;;11.79;58.84;100092.81;669336;29;1557;-83
2023/12/14 00:09:17;;;;;;;4.90;3.87;;;;;;;11.75;58.79;100087.53;668874;29;1558;-82
2023/12/14 00:09:38;;;;;;;5.07;4.00;;;;;;;11.82;58.73;100096.31;667052;29;1123;-82
2023/12/14 00:09:59;;;;;;;4.90;3.92;;;;;;;11.78;58.70;100091.06;669816;29;1174;-83
2023/12/14 00:10:19;;;;;;;5.73;4.50;;;;;;;11.75;58.91;100093.63;669410;29;1487;-83
2023/12/14 00:10:40;;;;;;;6.18;4.65;;;;;;;11.79;58.97;100100.66;666922;29;1171;-83
2023/12/14 00:11:08;;;;;;;6.72;4.78;;;;;;;11.81;59.06;100102.41;669455;29;1607;-83
2023/12/14 00:11:28;;;;;;;6.93;4.50;;;;;;;11.69;58.98;100092.69;672246;29;1459;-83
2023/12/14 00:11:49;;;;;;;7.43;4.40;;;;;;;11.69;58.95;100105.75;671904;29;1126;-83
2023/12/14 00:12:10;;;;;;;6.70;4.30;;;;;;;11.67;59.22;100103.09;673071;29;1512;-83
2023/12/14 00:12:31;;;;;;;6.63;4.30;;;;;;;11.65;59.37;100097.00;671721;29;1342;-83
2023/12/14 00:12:54;;;;;;;6.00;4.20;;;;;;;11.66;59.15;100098.75;664781;29;1118;-83
2023/12/14 00:13:46;;;;;;;5.15;4.10;;;;;;;11.77;58.93;100118.06;664079;29;1625;-83
2023/12/14 00:14:07;;;;;;;6.32;4.25;;;;;;;11.75;58.98;100119.75;660564;29;1628;-83
2023/12/14 00:14:27;;;;;;;7.43;4.57;;;;;;;11.68;58.99;100101.38;666401;29;1342;-82
2023/12/14 00:14:48;;;;;;;7.78;4.70;;;;;;;11.64;59.02;100105.66;670723;29;1652;-83
2023/12/14 00:15:09;;;;;;;6.10;4.30;;;;;;;11.62;58.80;100108.25;671243;29;1460;-82
2023/12/14 00:15:29;;;;;;;6.30;4.20;;;;;;;11.61;58.87;100101.25;674854;29;1149;-83
2023/12/14 00:15:50;;;;;;;6.25;4.35;;;;;;;11.66;58.78;100114.41;671693;29;1221;-83
2023/12/14 00:16:11;;;;;;;6.95;4.68;;;;;;;11.61;59.20;100113.47;669998;29;1516;-83
2023/12/14 00:16:31;;;;;;;7.07;4.80;;;;;;;11.56;59.20;100102.06;674812;29;995;-83
2023/12/14 00:16:52;;;;;;;7.07;4.95;;;;;;;11.57;59.08;100116.88;672428;29;1122;-83
2023/12/14 00:17:16;;;;;;;6.30;4.70;;;;;;;11.56;59.37;100115.13;671148;29;1467;-83
2023/12/14 00:17:37;;;;;;;6.03;4.97;;;;;;;11.54;59.07;100114.25;667157;29;1349;-83
2023/12/14 00:17:57;;;;;;;6.47;4.90;;;;;;;11.51;59.17;100113.31;669625;29;1460;-83
2023/12/14 00:18:18;;;;;;;9.07;4.72;;;;;;;11.51;59.08;100107.25;671758;29;1683;-83
2023/12/14 00:18:41;;;;;;;9.40;4.60;;;;;;;11.52;59.28;100115.09;674764;29;1120;-84
2023/12/14 00:19:02;;;;;;;8.07;4.93;;;;;;;11.56;59.29;100117.75;671577;29;1649;-83
2023/12/14 00:19:23;;;;;;;7.32;5.15;;;;;;;11.53;59.27;100115.97;669255;29;1081;-83
2023/12/14 00:19:44;;;;;;;7.18;4.97;;;;;;;11.57;59.05;100122.13;672294;29;1115;-83
2023/12/14 00:20:06;;;;;;;6.30;4.50;;;;;;;11.55;59.48;100122.09;669583;29;1530;-83
2023/12/14 00:20:26;;;;;;;5.30;4.20;;;;;;;11.55;59.27;100118.59;672224;29;1152;-82
2023/12/14 00:20:48;;;;;;;6.63;4.20;;;;;;;11.52;59.45;100112.50;672992;29;1156;-83
2023/12/14 00:21:08;;;;;;;8.30;4.72;;;;;;;11.60;59.55;100130.88;671476;29;1516;-83
2023/12/14 00:21:29;;;;;;;10.53;4.70;;;;;;;11.52;59.53;100122.06;669718;29;1232;-83
2023/12/14 00:21:50;;;;;;;9.55;4.85;;;;;;;11.49;59.33;100120.28;672304;29;1072;-83
2023/12/14 00:22:10;;;;;;;9.23;4.70;;;;;;;11.49;59.52;100112.44;673776;29;1472;-83
2023/12/14 00:22:31;;;;;;;7.53;4.97;;;;;;;11.48;59.28;100118.53;672554;29;1112;-84
2023/12/14 00:22:52;;;;;;;7.05;4.78;;;;;;;11.54;59.27;100127.31;669689;29;1304;-82
2023/12/14 00:23:13;;;;;;;6.85;4.50;;;;;;;11.49;59.39;100112.44;669651;29;1549;-83
2023/12/14 00:23:34;;;;;;;6.53;4.15;;;;;;;11.52;59.52;100125.56;666975;29;1254;-84
2023/12/14 00:23:55;;;;;;;6.53;4.10;;;;;;;11.51;59.40;100129.00;664422;29;1164;-83
2023/12/14 00:24:15;;;;;;;6.70;4.33;;;;;;;11.48;59.29;100115.91;671294;29;1911;-83
2023/12/14 00:24:36;;;;;;;6.90;4.57;;;;;;;11.52;59.54;100122.94;672213;29;967;-83
2023/12/14 00:24:57;;;;;;;6.47;4.68;;;;;;;11.53;59.59;100123.81;674369;29;1358;-83
2023/12/14 00:25:18;;;;;;;5.75;4.40;;;;;;;11.55;59.23;100121.22;672456;29;1398;-82
2023/12/14 00:25:39;;;;;;;5.63;4.60;;;;;;;11.55;59.57;100129.91;666935;29;1230;-83
2023/12/14 00:25:59;;;;;;;6.30;4.63;;;;;;;11.57;59.28;100128.22;669802;29;1273;-83
2023/12/14 00:26:20;;;;;;;6.47;4.85;;;;;;;11.57;59.32;100135.19;669492;29;1507;-83
2023/12/14 00:26:41;;;;;;;6.13;4.65;;;;;;;11.55;59.09;100127.31;671638;29;1439;-83
2023/12/14 00:27:02;;;;;;;6.43;4.80;;;;;;;11.47;59.29;100124.59;674673;29;1541;-83
2023/12/14 00:27:23;;;;;;;6.38;4.80;;;;;;;11.46;59.20;100120.25;672290;29;1283;-83
2023/12/14 00:27:43;;;;;;;6.93;5.10;;;;;;;11.51;59.44;100126.38;672443;29;1110;-83
2023/12/14 00:28:04;;;;;;;6.60;5.17;;;;;;;11.48;59.61;100130.69;677515;29;1486;-83
2023/12/14 00:28:24;;;;;;;6.45;5.10;;;;;;;11.48;59.33;100125.47;674915;29;1296;-83
2023/12/14 00:28:45;;;;;;;6.22;4.82;;;;;;;11.45;59.64;100126.31;671650;29;1143;-82
2023/12/14 00:29:06;;;;;;;6.00;4.90;;;;;;;11.45;59.37;100121.09;672544;29;1518;-82
2023/12/14 00:29:41;;;;;;;6.70;4.70;;;;;;;11.47;59.37;100124.59;671580;29;1607;-83
2023/12/14 00:30:02;;;;;;;6.65;4.63;;;;;;;11.57;59.63;100145.63;669922;29;1557;-83
2023/12/14 00:30:23;;;;;;;7.30;5.40;;;;;;;11.51;59.33;100130.75;672460;29;1263;-83
2023/12/14 00:30:44;;;;;;;8.75;6.05;;;;;;;11.62;59.48;100146.59;672239;29;1483;-83
2023/12/14 00:31:05;;;;;;;8.35;5.93;;;;;;;11.51;59.11;100126.38;672585;29;1581;-82
2023/12/14 00:31:26;;;;;;;7.55;5.60;;;;;;;11.55;59.15;100139.50;674961;29;1275;-83
2023/12/14 00:31:46;;;;;;;7.20;5.30;;;;;;;11.49;59.36;100133.34;667433;29;1158;-83
2023/12/14 00:32:07;;;;;;;9.77;5.32;;;;;;;11.54;59.51;100140.38;669354;29;1586;-84
2023/12/14 00:32:28;;;;;;;10.55;5.47;;;;;;;11.50;59.30;100135.09;672246;29;1029;-82
2023/12/14 00:32:48;;;;;;;11.50;5.68;;;;;;;11.55;59.39;100142.13;670694;29;1265;-82
2023/12/14 00:33:09;;;;;;;8.90;5.82;;;;;;;11.55;59.28;100140.38;672812;29;1493;-83
2023/12/14 00:33:30;;;;;;;8.88;5.80;;;;;;;11.56;59.47;100149.09;674802;29;1433;-83
2023/12/14 00:33:51;;;;;;;10.30;5.75;;;;;;;11.55;59.45;100152.56;673862;29;1473;-83
2023/12/14 00:34:12;;;;;;;10.50;5.32;;;;;;;11.55;59.42;100147.34;671420;29;1575;-83
2023/12/14 00:34:32;;;;;;;10.40;5.50;;;;;;;11.56;59.21;100149.97;672093;29;1412;-82
2023/12/14 00:34:53;;;;;;;8.05;5.55;;;;;;;11.47;59.29;100135.06;672152;29;1172;-83
2023/12/14 00:35:14;;;;;;;7.90;6.00;;;;;;;11.50;59.39;100139.44;673340;29;1614;-83
2023/12/14 00:35:34;;;;;;;7.72;5.93;;;;;;;11.52;59.46;100137.72;672143;29;1058;-84
2023/12/14 00:35:55;;;;;;;8.15;6.20;;;;;;;11.44;59.33;100132.38;672322;29;1126;-83
2023/12/14 00:36:19;;;;;;;8.48;6.63;;;;;;;11.47;59.41;100134.16;671092;29;1504;-83
2023/12/14 00:36:40;;;;;;;10.50;6.93;;;;;;;11.46;59.51;100138.53;671986;29;1355;-82
2023/12/14 00:37:01;;;;;;;11.35;7.40;;;;;;;11.46;59.61;100143.75;670847;29;1285;-83
2023/12/14 00:37:21;;;;;;;11.65;7.30;;;;;;;11.51;59.46;100144.69;671849;29;1623;-83
2023/12/14 00:37:42;;;;;;;14.07;7.60;;;;;;;11.47;59.46;100139.38;672221;29;1072;-83
2023/12/14 00:38:02;;;;;;;14.52;7.70;;;;;;;11.46;59.24;100141.16;677666;29;1052;-83
2023/12/14 00:38:23;;;;;;;14.35;7.90;;;;;;;11.42;59.29;100138.47;670279;29;902;-83
2023/12/14 00:38:44;;;;;;;11.37;7.63;;;;;;;11.47;59.29;100149.84;669693;29;1199;-82
2023/12/14 00:39:04;;;;;;;11.60;7.78;;;;;;;11.46;59.46;100140.25;669605;29;1511;-82
2023/12/14 00:39:25;;;;;;;11.70;8.18;;;;;;;11.47;59.42;100142.91;669170;29;1113;-83
2023/12/14 00:39:45;;;;;;;13.97;9.20;;;;;;;11.46;59.14;100146.38;672156;29;1066;-82
2023/12/14 00:40:07;;;;;;;13.10;8.73;;;;;;;11.43;59.51;100141.06;666584;29;1598;-83
2023/12/14 00:40:28;;;;;;;13.05;8.77;;;;;;;11.49;59.63;100143.78;669586;29;1057;-83
2023/12/14 00:40:48;;;;;;;12.40;8.50;;;;;;;11.47;59.38;100144.63;672243;29;972;-82
2023/12/14 00:41:09;;;;;;;12.48;8.73;;;;;;;11.44;59.32;100140.22;666202;29;1536;-83
2023/12/14 00:41:30;;;;;;;13.40;8.70;;;;;;;11.42;59.32;100144.56;669730;29;1005;-82
2023/12/14 00:41:50;;;;;;;13.80;8.93;;;;;;;11.45;59.31;100152.44;671054;29;1199;-82
2023/12/14 00:42:11;;;;;;;14.80;9.40;;;;;;;11.46;59.51;100148.97;671024;29;1294;-82
2023/12/14 00:42:32;;;;;;;12.75;9.38;;;;;;;11.48;59.59;100165.56;667007;29;1181;-83
2023/12/14 00:42:53;;;;;;;12.05;9.30;;;;;;;11.43;59.47;100142.84;669747;29;1009;-82
2023/12/14 00:43:14;;;;;;;12.47;9.40;;;;;;;11.38;59.39;100145.38;669607;29;1484;-82
2023/12/14 00:43:36;;;;;;;12.75;9.57;;;;;;;11.41;59.61;100148.03;669474;29;1314;-83
2023/12/14 00:43:56;;;;;;;13.13;9.30;;;;;;;11.37;59.36;100141.88;667144;29;1378;-82
2023/12/14 00:44:17;;;;;;;13.83;9.47;;;;;;;11.42;59.71;100154.16;672376;29;1978;-82
2023/12/14 00:44:37;;;;;;;15.43;9.80;;;;;;;11.39;59.20;100152.34;672163;29;1034;-82
2023/12/14 00:44:58;;;;;;;15.45;9.77;;;;;;;11.40;59.37;100153.22;674384;29;1264;-83
2023/12/14 00:45:19;;;;;;;15.40;9.77;;;;;;;11.43;59.30;100159.38;674569;29;1457;-83
2023/12/14 00:45:41;;;;;;;16.52;9.48;;;;;;;11.40;59.25;100150.59;672039;29;1375;-82
2023/12/14 00:46:03;;;;;;;16.70;9.60;;;;;;;11.39;59.41;100157.59;672401;29;860;-83
2023/12/14 00:46:23;;;;;;;15.70;9.88;;;;;;;11.32;59.40;100147.91;674119;29;1507;-82
2023/12/14 00:46:44;;;;;;;14.27;9.85;;;;;;;11.35;59.19;100145.31;672254;29;1291;-83
2023/12/14 00:47:04;;;;;;;14.20;9.70;;;;;;;11.32;59.51;100150.50;672789;29;1472;-82
2023/12/14 00:47:25;;;;;;;15.30;9.63;;;;;;;11.35;59.59;100150.53;669702;29;1274;-82
2023/12/14 00:47:46;;;;;;;15.70;9.87;;;;;;;11.39;59.39;100157.59;669671;29;1726;-82
2023/12/14 00:48:07;;;;;;;16.55;10.45;;;;;;;11.35;59.27;100151.44;669463;29;1599;-82
2023/12/14 00:48:28;;;;;;;15.57;10.30;;;;;;;11.43;59.43;100161.97;671301;29;1113;-83
2023/12/14 00:48:49;;;;;;;15.05;10.13;;;;;;;11.43;59.26;100169.81;669613;29;1224;-82
2023/12/14 00:49:10;;;;;;;14.67;9.77;;;;;;;11.31;59.24;100147.00;672839;29;1583;-83
2023/12/14 00:49:30;;;;;;;14.68;9.40;;;;;;;11.31;59.46;100154.84;674059;29;981;-83
2023/12/14 00:49:51;;;;;;;14.85;9.45;;;;;;;11.35;59.08;100155.75;673901;29;952;-83
2023/12/14 00:50:12;;;;;;;16.77;9.10;;;;;;;11.36;59.48;100152.28;673157;29;1560;-83
2023/12/14 00:50:32;;;;;;;18.33;9.77;;;;;;;11.36;59.34;100163.63;669632;29;1238;-82
2023/12/14 00:50:53;;;;;;;19.42;9.98;;;;;;;11.33;59.30;100158.38;669733;29;1124;-82
2023/12/14 00:51:14;;;;;;;21.00;10.70;;;;;;;11.31;59.51;100160.06;673289;29;1569;-83
2023/12/14 00:51:37;;;;;;;20.63;10.57;;;;;;;11.33;59.30;100162.72;672128;29;1031;-82
2023/12/14 00:51:58;;;;;;;17.67;9.95;;;;;;;11.37;59.27;100174.97;667069;29;1347;-83
2023/12/14 00:52:19;;;;;;;15.45;9.82;;;;;;;11.29;59.33;100158.31;669378;29;1532;-83
2023/12/14 00:52:39;;;;;;;13.52;9.70;;;;;;;11.31;59.52;100167.91;669060;29;1412;-83
2023/12/14 00:53:00;;;;;;;12.43;9.80;;;;;;;11.26;59.54;100166.09;669547;29;1525;-83
2023/12/14 00:53:21;;;;;;;11.60;9.25;;;;;;;11.33;59.52;100162.72;669227;29;1469;-83
2023/12/14 00:53:41;;;;;;;11.93;9.02;;;;;;;11.32;59.35;100155.72;669523;29;1088;-83
2023/12/14 00:54:02;;;;;;;12.52;9.25;;;;;;;11.34;59.09;100169.69;668617;29;1373;-83
2023/12/14 00:54:23;;;;;;;13.60;9.50;;;;;;;11.36;59.31;100162.75;666634;29;1605;-82
2023/12/14 00:54:44;;;;;;;15.60;9.80;;;;;;;11.34;59.12;100175.81;667009;29;1221;-82
2023/12/14 00:55:05;;;;;;;17.55;9.85;;;;;;;11.36;59.23;100178.41;666991;29;1481;-83
2023/12/14 00:55:26;;;;;;;16.85;9.55;;;;;;;11.30;59.23;100171.38;669673;29;1162;-83
2023/12/14 00:55:46;;;;;;;16.08;9.80;;;;;;;11.22;59.39;100159.94;670151;29;965;-82
2023/12/14 00:56:08;;;;;;;14.25;9.65;;;;;;;11.30;59.14;100178.34;670258;29;1605;-82
2023/12/14 00:56:29;;;;;;;16.80;10.23;;;;;;;11.22;59.33;100176.50;672206;29;1344;-83
2023/12/14 00:56:49;;;;;;;16.20;9.77;;;;;;;11.32;59.36;100184.47;669801;29;1074;-82
2023/12/14 00:57:10;;;;;;;17.67;9.88;;;;;;;11.22;59.49;100178.22;670563;29;1504;-82
2023/12/14 00:57:31;;;;;;;15.90;9.73;;;;;;;11.34;59.54;100186.25;672282;29;1152;-83
2023/12/14 00:57:52;;;;;;;15.48;9.52;;;;;;;11.30;59.41;100178.34;669779;29;993;-83
2023/12/14 00:58:13;;;;;;;16.20;9.90;;;;;;;11.24;59.32;100172.16;668571;29;1512;-82
2023/12/14 00:58:34;;;;;;;16.70;10.23;;;;;;;11.26;59.50;100171.31;674379;29;1231;-83
2023/12/14 00:58:54;;;;;;;18.05;10.25;;;;;;;11.27;59.38;100170.44;674727;29;1143;-83
2023/12/14 00:59:15;;;;;;;16.80;10.20;;;;;;;11.30;59.15;100178.34;671739;29;1495;-83
2023/12/14 00:59:36;;;;;;;15.98;9.45;;;;;;;11.33;59.69;100188.84;667894;29;1270;-82
2023/12/14 00:59:56;;;;;;;14.40;9.23;;;;;;;11.30;59.26;100180.97;667096;29;986;-82
2023/12/14 01:00:18;;;;;;;14.30;8.90;;;;;;;11.32;59.45;100181.84;670230;29;1590;-83
2023/12/14 01:00:39;;;;;;;14.68;9.30;;;;;;;11.31;59.44;100183.56;671294;29;1229;-83
2023/12/14 01:01:00;;;;;;;15.68;9.10;;;;;;;11.38;59.53;100187.19;674787;29;1124;-82
2023/12/14 01:01:20;;;;;;;16.60;9.43;;;;;;;11.30;59.25;100186.19;669505;29;1665;-83
2023/12/14 01:01:41;;;;;;;15.50;8.80;;;;;;;11.30;59.22;100180.97;669511;29;1257;-83
2023/12/14 01:02:01;;;;;;;14.33;8.80;;;;;;;11.30;59.19;100181.81;669832;29;1617;-82
2023/12/14 01:02:22;;;;;;;14.23;9.00;;;;;;;11.31;59.24;100187.94;671830;29;1488;-82
2023/12/14 01:02:43;;;;;;;15.85;9.50;;;;;;;11.29;59.34;100187.03;674576;29;1155;-83
2023/12/14 01:03:03;;;;;;;16.65;9.85;;;;;;;11.31;59.35;100182.72;669631;29;984;-83
2023/12/14 01:03:24;;;;;;;15.73;9.33;;;;;;;11.28;59.26;100191.38;674986;29;1431;-83
2023/12/14 01:03:45;;;;;;;13.35;8.73;;;;;;;11.28;59.47;100190.47;669026;29;1114;-83
2023/12/14 01:04:06;;;;;;;14.00;9.38;;;;;;;11.27;59.65;100189.63;671735;29;1567;-83
2023/12/14 01:04:27;;;;;;;14.43;9.53;;;;;;;11.24;59.17;100185.22;674667;29;1278;-83
2023/12/14 01:04:47;;;;;;;18.13;10.30;;;;;;;11.29;59.45;100197.50;667018;29;1056;-82
2023/12/14 01:05:08;;;;;;;16.67;9.40;;;;;;;11.30;59.23;100200.09;671595;29;1499;-83
2023/12/14 01:05:29;;;;;;;16.63;9.50;;;;;;;11.26;59.50;100195.69;672126;29;1056;-83
2023/12/14 01:05:49;;;;;;;14.35;9.20;;;;;;;11.28;59.10;100200.94;674746;29;1361;-83
2023/12/14 01:06:10;;;;;;;13.75;8.32;;;;;;;11.27;58.99;100202.69;670273;29;1444;-83
2023/12/14 01:06:31;;;;;;;13.45;8.10;;;;;;;11.19;59.32;100192.09;667381;29;1157;-84
2023/12/14 01:06:52;;;;;;;14.48;8.20;;;;;;;11.21;59.21;100198.25;666696;29;1272;-83
2023/12/14 01:07:12;;;;;;;13.95;8.50;;;;;;;11.23;59.22;100199.13;672962;29;1467;-83
2023/12/14 01:07:33;;;;;;;13.23;8.43;;;;;;;11.22;59.42;100202.59;667033;29;979;-83
2023/12/14 01:07:54;;;;;;;13.40;8.35;;;;;;;11.20;59.43;100203.44;672208;29;1070;-83
2023/12/14 01:08:15;;;;;;;15.30;9.07;;;;;;;11.17;59.43;100199.03;670817;29;1503;-83
2023/12/14 01:08:36;;;;;;;14.23;8.82;;;;;;;11.16;59.57;100194.66;669745;29;1342;-83
2023/12/14 01:08:56;;;;;;;12.48;8.35;;;;;;;11.18;59.42;100198.19;672083;29;1468;-83
2023/12/14 01:09:17;;;;;;;11.47;7.97;;;;;;;11.18;59.12;100200.78;669804;29;1014;-83
2023/12/14 01:09:38;;;;;;;11.95;7.85;;;;;;;11.15;59.52;100195.53;669433;29;1634;-83
2023/12/14 01:09:59;;;;;;;11.77;7.90;;;;;;;11.17;59.42;100204.25;669587;29;1216;-83
2023/12/14 01:10:20;;;;;;;12.67;8.33;;;;;;;11.16;59.12;100194.66;666925;29;1453;-83
2023/12/14 01:10:40;;;;;;;12.47;8.67;;;;;;;11.20;59.49;100204.28;671948;29;1173;-83
2023/12/14 01:11:01;;;;;;;12.48;8.25;;;;;;;11.17;59.49;100193.81;672164;29;1277;-83
2023/12/14 01:11:22;;;;;;;15.00;7.90;;;;;;;11.17;59.30;100199.03;674135;29;1492;-83
2023/12/14 01:11:43;;;;;;;13.87;7.10;;;;;;;11.19;59.34;100199.94;671690;29;1343;-83
2023/12/14 01:12:03;;;;;;;14.13;7.70;;;;;;;11.18;59.30;100203.41;672169;29;1151;-83
2023/12/14 01:12:24;;;;;;;11.38;7.95;;;;;;;11.15;59.13;100198.13;669424;29;1582;-82
2023/12/14 01:12:45;;;;;;;12.80;8.20;;;;;;;11.21;59.23;100207.78;674797;29;1006;-83
2023/12/14 01:13:06;;;;;;;14.27;7.85;;;;;;;11.15;59.62;100198.13;669459;29;1584;-83
2023/12/14 01:13:27;;;;;;;14.05;7.70;;;;;;;11.19;59.41;100202.53;669692;29;1130;-83
2023/12/14 01:13:47;;;;;;;14.18;8.02;;;;;;;11.16;59.26;100201.59;667158;29;1052;-82
2023/12/14 01:14:08;;;;;;;13.47;8.30;;;;;;;11.23;59.39;100209.59;671396;29;1515;-82
2023/12/14 01:14:28;;;;;;;14.93;8.35;;;;;;;11.19;59.48;100202.53;669673;29;1217;-82
2023/12/14 01:14:50;;;;;;;13.68;7.88;;;;;;;11.17;59.26;100203.41;669624;29;1138;-82
2023/12/14 01:15:11;;;;;;;13.55;7.68;;;;;;;11.14;59.03;100199.00;672465;29;1474;-82
2023/12/14 01:15:32;;;;;;;12.55;7.50;;;;;;;11.15;59.38;100200.75;666863;29;1415;-83
2023/12/14 01:15:53;;;;;;;13.45;7.50;;;;;;;11.16;59.29;100205.13;669602;29;1047;-82
2023/12/14 01:16:14;;;;;;;13.55;7.47;;;;;;;11.17;59.56;100214.69;673270;29;1573;-83
2023/12/14 01:16:34;;;;;;;13.27;7.30;;;;;;;11.14;59.37;100204.22;666997;29;1156;-83
2023/12/14 01:16:55;;;;;;;12.25;7.40;;;;;;;11.15;59.64;100205.97;669621;29;961;-83
2023/12/14 01:17:16;;;;;;;10.85;7.47;;;;;;;11.17;59.47;100211.22;674247;29;1474;-84
2023/12/14 01:17:37;;;;;;;10.90;7.80;;;;;;;11.14;59.28;100209.44;668616;29;1098;-83
2023/12/14 01:17:58;;;;;;;11.75;7.53;;;;;;;11.19;59.38;100218.22;667058;29;1068;-83
2023/12/14 01:18:19;;;;;;;12.07;7.38;;;;;;;11.14;59.39;100208.53;668328;29;1495;-83
2023/12/14 01:18:40;;;;;;;13.05;7.57;;;;;;;11.16;59.29;100215.56;666953;29;1223;-83
2023/12/14 01:19:01;;;;;;;12.38;7.70;;;;;;;11.12;59.43;100200.69;664210;29;1313;-83
2023/12/14 01:19:21;;;;;;;12.55;7.97;;;;;;;11.18;59.30;100218.22;665196;29;1528;-83
2023/12/14 01:19:42;;;;;;;14.80;7.80;;;;;;;11.21;59.38;100213.91;669438;29;1012;-84
2023/12/14 01:20:06;;;;;;;16.03;7.97;;;;;;;11.12;59.17;100211.13;669618;29;1196;-83
2023/12/14 01:20:27;;;;;;;16.27;7.85;;;;;;;11.22;59.02;100223.50;667009;29;1248;-83
2023/12/14 01:20:47;;;;;;;13.50;7.95;;;;;;;11.10;58.96;100208.50;669591;29;1136;-83
2023/12/14 01:21:08;;;;;;;14.82;8.43;;;;;;;11.14;59.16;100214.66;666825;29;1512;-83
2023/12/14 01:21:28;;;;;;;16.03;8.80;;;;;;;11.16;59.37;100220.78;667133;29;1181;-83
2023/12/14 01:21:49;;;;;;;14.82;8.45;;;;;;;11.15;59.34;100221.66;667008;29;1106;-83
2023/12/14 01:22:10;;;;;;;11.93;7.70;;;;;;;11.17;59.24;100225.16;667055;29;1518;-82
2023/12/14 01:22:31;;;;;;;11.73;7.45;;;;;;;11.11;59.12;100219.81;664401;29;1244;-83
2023/12/14 01:22:51;;;;;;;12.60;7.77;;;;;;;11.15;59.44;100216.41;665616;29;1515;-82
2023/12/14 01:23:12;;;;;;;12.73;7.90;;;;;;;11.16;59.42;100219.88;669429;29;1065;-83
2023/12/14 01:23:32;;;;;;;12.23;8.27;;;;;;;11.20;59.46;100235.63;669588;29;969;-85
2023/12/14 01:23:53;;;;;;;12.20;8.10;;;;;;;11.14;59.34;100230.34;671649;29;1161;-83
2023/12/14 01:24:14;;;;;;;11.27;7.80;;;;;;;11.10;59.41;100218.97;672935;29;1923;-83
2023/12/14 01:24:35;;;;;;;10.23;7.50;;;;;;;11.13;59.35;100227.69;674590;29;1220;-82
2023/12/14 01:24:55;;;;;;;11.27;7.82;;;;;;;11.09;59.29;100226.75;676474;29;1594;-83
2023/12/14 01:25:16;;;;;;;12.80;8.33;;;;;;;11.15;59.61;100232.09;666698;29;1481;-83
2023/12/14 01:25:37;;;;;;;14.00;8.87;;;;;;;11.14;59.34;100225.09;666910;29;1158;-83
2023/12/14 01:25:57;;;;;;;12.95;8.50;;;;;;;11.13;59.29;100222.47;672028;29;1244;-83
2023/12/14 01:26:18;;;;;;;12.90;8.30;;;;;;;11.09;59.23;100227.66;670339;29;1494;-83
2023/12/14 01:26:38;;;;;;;12.80;7.93;;;;;;;11.10;59.31;100231.13;669389;29;1096;-84
2023/12/14 01:26:59;;;;;;;11.82;7.88;;;;;;;11.10;59.50;100233.72;669709;29;829;-83
2023/12/14 01:27:20;;;;;;;11.30;7.80;;;;;;;11.08;59.28;100230.22;665929;29;1517;-83
2023/12/14 01:27:41;;;;;;;10.77;7.38;;;;;;;11.10;59.21;100238.94;666890;29;1329;-84
2023/12/14 01:28:02;;;;;;;10.63;7.38;;;;;;;11.15;59.18;100247.75;669487;29;1248;-83
2023/12/14 01:28:23;;;;;;;10.30;7.20;;;;;;;11.09;59.17;100231.97;669009;29;1523;-82
2023/12/14 01:28:43;;;;;;;10.60;7.60;;;;;;;11.11;59.50;100235.47;669397;29;1057;-83
2023/12/14 01:29:04;;;;;;;11.93;7.93;;;;;;;11.11;59.32;100238.09;667571;29;1183;-83
2023/12/14 01:29:25;;;;;;;13.70;7.90;;;;;;;11.12;59.23;100237.25;666300;29;1491;-83
2023/12/14 01:29:45;;;;;;;14.50;8.00;;;;;;;11.14;58.96;100247.72;672064;29;1354;-82
2023/12/14 01:30:07;;;;;;;13.47;7.80;;;;;;;11.06;59.25;100237.16;671913;29;1576;-83
2023/12/14 01:30:28;;;;;;;13.23;8.10;;;;;;;11.09;59.23;100250.25;672118;29;1103;-82
2023/12/14 01:30:49;;;;;;;11.90;7.93;;;;;;;11.07;59.47;100241.53;666916;29;1080;-83
2023/12/14 01:31:09;;;;;;;12.48;8.02;;;;;;;11.07;59.27;100238.91;666771;29;1589;-83
2023/12/14 01:31:30;;;;;;;12.05;8.27;;;;;;;11.08;59.11;100251.13;673199;29;1295;-82
2023/12/14 01:31:51;;;;;;;13.90;8.67;;;;;;;11.06;59.39;100245.00;669514;29;1183;-82
2023/12/14 01:32:11;;;;;;;12.80;8.50;;;;;;;11.09;59.18;100250.25;670247;29;1575;-83
2023/12/14 01:32:32;;;;;;;11.00;7.63;;;;;;;11.04;59.29;100242.34;672168;29;1183;-84
2023/12/14 01:32:52;;;;;;;10.40;7.20;;;;;;;11.05;59.32;100245.84;672656;29;1261;-83
2023/12/14 01:33:13;;;;;;;10.90;7.28;;;;;;;11.06;59.21;100245.00;669421;29;1558;-82
2023/12/14 01:33:34;;;;;;;11.05;7.60;;;;;;;11.04;59.25;100242.34;669448;29;1163;-83
2023/12/14 01:33:55;;;;;;;11.35;7.72;;;;;;;11.09;59.25;100251.16;674250;29;1515;-83
2023/12/14 01:34:16;;;;;;;11.48;7.82;;;;;;;11.07;59.51;100244.13;675713;29;1576;-83
2023/12/14 01:34:36;;;;;;;11.20;7.70;;;;;;;11.00;59.41;100237.03;674589;29;1188;-83
2023/12/14 01:34:57;;;;;;;10.80;7.60;;;;;;;11.06;59.35;100237.16;674444;29;1173;-83
2023/12/14 01:35:17;;;;;;;11.20;7.65;;;;;;;11.03;59.01;100242.31;671896;29;1552;-82
2023/12/14 01:35:38;;;;;;;12.07;7.78;;;;;;;11.07;59.38;100238.91;674478;29;1141;-83
2023/12/14 01:35:59;;;;;;;11.27;7.63;;;;;;;11.14;59.33;100246.00;677277;29;1498;-82
2023/12/14 01:36:24;;;;;;;12.38;8.00;;;;;;;11.10;59.38;100233.72;674417;29;1450;-83
2023/12/14 01:36:45;;;;;;;13.35;8.50;;;;;;;11.15;59.53;100242.53;671635;29;2088;-83
2023/12/14 01:37:06;;;;;;;13.60;8.60;;;;;;;11.22;58.88;100257.47;669536;29;1305;-82
2023/12/14 01:37:28;;;;;;;11.50;7.90;;;;;;;11.13;58.89;100253.81;671477;29;1096;-82
2023/12/14 01:37:48;;;;;;;10.10;7.50;;;;;;;11.16;59.04;100253.84;673166;29;1075;-83
2023/12/14 01:38:09;;;;;;;10.93;7.40;;;;;;;11.11;59.27;100256.38;672909;29;1592;-83
2023/12/14 01:38:29;;;;;;;11.63;7.80;;;;;;;11.10;59.39;100255.50;672106;29;1198;-82
2023/12/14 01:38:51;;;;;;;12.63;8.20;;;;;;;11.14;59.25;100259.06;674710;29;1142;-82
2023/12/14 01:39:12;;;;;;;11.00;7.40;;;;;;;11.13;59.09;100264.25;672486;29;1634;-82
2023/12/14 01:39:33;;;;;;;11.07;7.43;;;;;;;11.21;59.04;100267.88;674078;29;1323;-83